sensor_id;sensor_type;location;lat;lon;timestamp;P1;durP1;ratioP1;P2;durP2;ratioP2
15307;SDS011;7755;52.208;6.964;2022-12-16T00:00:43;54.97;;;34.60;;
15307;SDS011;7755;52.208;6.964;2022-12-16T00:04:46;53.37;;;34.47;;
15307;SDS011;7755;52.208;6.964;2022-12-16T00:08:50;57.73;;;35.53;;
15307;SDS011;7755;52.208;6.964;2022-12-16T00:12:56;54.47;;;36.23;;
15307;SDS011;7755;52.208;6.964;2022-12-16T00:16:59;48.73;;;33.17;;
15307;SDS011;7755;52.208;6.964;2022-12-16T00:21:02;52.03;;;35.70;;
15307;SDS011;7755;52.208;6.964;2022-12-16T00:25:05;56.43;;;35.07;;
15307;SDS011;7755;52.208;6.964;2022-12-16T00:29:10;50.47;;;33.97;;
15307;SDS011;7755;52.208;6.964;2022-12-16T00:33:12;52.27;;;32.97;;
15307;SDS011;7755;52.208;6.964;2022-12-16T00:37:15;53.33;;;34.43;;
15307;SDS011;7755;52.208;6.964;2022-12-16T00:41:18;54.20;;;35.07;;
15307;SDS011;7755;52.208;6.964;2022-12-16T00:45:22;43.93;;;30.93;;
15307;SDS011;7755;52.208;6.964;2022-12-16T00:49:25;52.90;;;34.80;;
15307;SDS011;7755;52.208;6.964;2022-12-16T00:53:28;53.70;;;35.23;;
15307;SDS011;7755;52.208;6.964;2022-12-16T00:57:31;47.27;;;32.53;;
15307;SDS011;7755;52.208;6.964;2022-12-16T01:01:35;53.87;;;35.30;;
15307;SDS011;7755;52.208;6.964;2022-12-16T01:05:38;53.70;;;34.97;;
15307;SDS011;7755;52.208;6.964;2022-12-16T01:09:41;52.67;;;33.77;;
15307;SDS011;7755;52.208;6.964;2022-12-16T01:13:44;49.23;;;32.67;;
15307;SDS011;7755;52.208;6.964;2022-12-16T01:17:49;45.60;;;31.67;;
15307;SDS011;7755;52.208;6.964;2022-12-16T01:21:52;58.67;;;39.03;;
15307;SDS011;7755;52.208;6.964;2022-12-16T01:25:55;49.73;;;35.57;;
15307;SDS011;7755;52.208;6.964;2022-12-16T01:30:00;47.87;;;33.90;;
15307;SDS011;7755;52.208;6.964;2022-12-16T01:34:04;54.37;;;35.67;;
15307;SDS011;7755;52.208;6.964;2022-12-16T01:38:07;57.43;;;38.30;;
15307;SDS011;7755;52.208;6.964;2022-12-16T01:42:10;57.37;;;35.57;;
15307;SDS011;7755;52.208;6.964;2022-12-16T01:46:15;51.73;;;35.83;;
15307;SDS011;7755;52.208;6.964;2022-12-16T01:50:24;50.63;;;34.83;;
15307;SDS011;7755;52.208;6.964;2022-12-16T01:54:30;56.53;;;36.87;;
15307;SDS011;7755;52.208;6.964;2022-12-16T01:58:37;56.57;;;36.93;;
15307;SDS011;7755;52.208;6.964;2022-12-16T02:02:42;48.87;;;32.77;;
15307;SDS011;7755;52.208;6.964;2022-12-16T02:06:51;62.23;;;39.53;;
15307;SDS011;7755;52.208;6.964;2022-12-16T02:10:59;59.13;;;36.53;;
15307;SDS011;7755;52.208;6.964;2022-12-16T02:15:21;52.10;;;35.00;;
15307;SDS011;7755;52.208;6.964;2022-12-16T02:19:41;51.87;;;35.83;;
15307;SDS011;7755;52.208;6.964;2022-12-16T02:28:51;66.00;;;40.47;;
15307;SDS011;7755;52.208;6.964;2022-12-16T02:33:16;48.60;;;34.10;;
15307;SDS011;7755;52.208;6.964;2022-12-16T02:37:31;56.57;;;35.33;;
15307;SDS011;7755;52.208;6.964;2022-12-16T02:41:41;53.20;;;37.47;;
15307;SDS011;7755;52.208;6.964;2022-12-16T02:45:48;55.87;;;37.40;;
15307;SDS011;7755;52.208;6.964;2022-12-16T02:49:54;55.70;;;36.43;;
15307;SDS011;7755;52.208;6.964;2022-12-16T02:53:57;51.60;;;36.87;;
15307;SDS011;7755;52.208;6.964;2022-12-16T02:58:09;55.27;;;36.17;;
15307;SDS011;7755;52.208;6.964;2022-12-16T03:02:18;53.93;;;35.07;;
15307;SDS011;7755;52.208;6.964;2022-12-16T03:06:28;59.23;;;37.83;;
15307;SDS011;7755;52.208;6.964;2022-12-16T03:10:33;60.00;;;40.67;;
15307;SDS011;7755;52.208;6.964;2022-12-16T03:14:41;50.37;;;33.40;;
15307;SDS011;7755;52.208;6.964;2022-12-16T03:18:48;61.60;;;38.73;;
15307;SDS011;7755;52.208;6.964;2022-12-16T03:22:57;53.10;;;35.67;;
15307;SDS011;7755;52.208;6.964;2022-12-16T03:27:05;52.37;;;34.90;;
15307;SDS011;7755;52.208;6.964;2022-12-16T03:31:14;54.60;;;35.77;;
15307;SDS011;7755;52.208;6.964;2022-12-16T03:35:26;64.10;;;41.20;;
15307;SDS011;7755;52.208;6.964;2022-12-16T03:39:36;62.83;;;42.60;;
15307;SDS011;7755;52.208;6.964;2022-12-16T03:43:42;57.97;;;39.13;;
15307;SDS011;7755;52.208;6.964;2022-12-16T03:47:47;57.83;;;38.97;;
15307;SDS011;7755;52.208;6.964;2022-12-16T03:51:51;57.33;;;36.80;;
15307;SDS011;7755;52.208;6.964;2022-12-16T03:55:56;52.03;;;33.03;;
15307;SDS011;7755;52.208;6.964;2022-12-16T03:59:59;60.50;;;37.87;;
15307;SDS011;7755;52.208;6.964;2022-12-16T04:04:12;52.87;;;34.63;;
15307;SDS011;7755;52.208;6.964;2022-12-16T04:08:14;50.50;;;33.30;;
15307;SDS011;7755;52.208;6.964;2022-12-16T04:12:19;56.67;;;35.13;;
15307;SDS011;7755;52.208;6.964;2022-12-16T04:16:39;56.63;;;37.30;;
15307;SDS011;7755;52.208;6.964;2022-12-16T04:21:00;53.37;;;35.17;;
15307;SDS011;7755;52.208;6.964;2022-12-16T04:25:23;62.40;;;40.37;;
15307;SDS011;7755;52.208;6.964;2022-12-16T04:29:29;57.57;;;37.40;;
15307;SDS011;7755;52.208;6.964;2022-12-16T04:33:32;53.83;;;34.77;;
15307;SDS011;7755;52.208;6.964;2022-12-16T04:37:53;54.47;;;33.87;;
15307;SDS011;7755;52.208;6.964;2022-12-16T04:42:13;53.33;;;36.53;;
15307;SDS011;7755;52.208;6.964;2022-12-16T04:46:35;62.23;;;38.43;;
15307;SDS011;7755;52.208;6.964;2022-12-16T04:50:55;50.03;;;32.87;;
15307;SDS011;7755;52.208;6.964;2022-12-16T04:55:16;52.40;;;34.57;;
15307;SDS011;7755;52.208;6.964;2022-12-16T04:59:36;51.17;;;35.23;;
15307;SDS011;7755;52.208;6.964;2022-12-16T05:03:58;52.23;;;35.87;;
15307;SDS011;7755;52.208;6.964;2022-12-16T05:08:18;46.83;;;34.63;;
15307;SDS011;7755;52.208;6.964;2022-12-16T05:12:38;49.47;;;35.20;;
15307;SDS011;7755;52.208;6.964;2022-12-16T05:16:59;56.43;;;37.57;;
15307;SDS011;7755;52.208;6.964;2022-12-16T05:21:20;57.13;;;37.33;;
15307;SDS011;7755;52.208;6.964;2022-12-16T05:25:41;49.07;;;34.13;;
15307;SDS011;7755;52.208;6.964;2022-12-16T05:30:01;56.80;;;36.83;;
15307;SDS011;7755;52.208;6.964;2022-12-16T05:34:22;57.80;;;36.90;;
15307;SDS011;7755;52.208;6.964;2022-12-16T05:38:43;51.77;;;35.50;;
15307;SDS011;7755;52.208;6.964;2022-12-16T05:43:04;60.80;;;40.97;;
15307;SDS011;7755;52.208;6.964;2022-12-16T05:47:24;59.13;;;40.17;;
15307;SDS011;7755;52.208;6.964;2022-12-16T05:51:45;60.40;;;42.43;;
15307;SDS011;7755;52.208;6.964;2022-12-16T05:56:07;109.83;;;71.43;;
15307;SDS011;7755;52.208;6.964;2022-12-16T06:00:28;55.40;;;38.80;;
15307;SDS011;7755;52.208;6.964;2022-12-16T06:04:48;55.10;;;38.73;;
15307;SDS011;7755;52.208;6.964;2022-12-16T06:09:20;52.00;;;36.00;;
15307;SDS011;7755;52.208;6.964;2022-12-16T06:13:42;57.90;;;37.27;;
15307;SDS011;7755;52.208;6.964;2022-12-16T06:18:02;56.23;;;38.47;;
15307;SDS011;7755;52.208;6.964;2022-12-16T06:22:23;58.47;;;36.27;;
15307;SDS011;7755;52.208;6.964;2022-12-16T06:26:43;47.20;;;33.20;;
15307;SDS011;7755;52.208;6.964;2022-12-16T06:31:05;56.67;;;38.80;;
15307;SDS011;7755;52.208;6.964;2022-12-16T06:35:25;58.37;;;38.87;;
15307;SDS011;7755;52.208;6.964;2022-12-16T06:39:45;54.03;;;36.63;;
15307;SDS011;7755;52.208;6.964;2022-12-16T06:44:06;60.67;;;39.23;;
15307;SDS011;7755;52.208;6.964;2022-12-16T06:48:27;62.40;;;41.20;;
15307;SDS011;7755;52.208;6.964;2022-12-16T06:52:48;58.40;;;39.67;;
15307;SDS011;7755;52.208;6.964;2022-12-16T06:57:08;56.97;;;39.07;;
15307;SDS011;7755;52.208;6.964;2022-12-16T07:01:29;56.50;;;35.97;;
15307;SDS011;7755;52.208;6.964;2022-12-16T07:05:52;54.50;;;37.00;;
15307;SDS011;7755;52.208;6.964;2022-12-16T07:10:13;56.87;;;37.87;;
15307;SDS011;7755;52.208;6.964;2022-12-16T07:14:33;57.80;;;36.80;;
15307;SDS011;7755;52.208;6.964;2022-12-16T07:18:54;50.90;;;36.40;;
15307;SDS011;7755;52.208;6.964;2022-12-16T07:23:15;61.50;;;41.20;;
15307;SDS011;7755;52.208;6.964;2022-12-16T07:27:36;64.20;;;42.23;;
15307;SDS011;7755;52.208;6.964;2022-12-16T07:31:57;65.73;;;41.47;;
15307;SDS011;7755;52.208;6.964;2022-12-16T07:36:17;58.23;;;39.00;;
15307;SDS011;7755;52.208;6.964;2022-12-16T07:40:39;66.03;;;40.30;;
15307;SDS011;7755;52.208;6.964;2022-12-16T07:44:55;51.47;;;35.43;;
15307;SDS011;7755;52.208;6.964;2022-12-16T07:49:16;52.47;;;36.43;;
15307;SDS011;7755;52.208;6.964;2022-12-16T07:53:36;65.43;;;40.33;;
15307;SDS011;7755;52.208;6.964;2022-12-16T07:57:58;65.50;;;42.93;;
15307;SDS011;7755;52.208;6.964;2022-12-16T08:02:23;61.90;;;38.60;;
15307;SDS011;7755;52.208;6.964;2022-12-16T08:06:44;65.27;;;41.70;;
15307;SDS011;7755;52.208;6.964;2022-12-16T08:11:05;66.53;;;42.27;;
15307;SDS011;7755;52.208;6.964;2022-12-16T08:15:27;66.00;;;46.10;;
15307;SDS011;7755;52.208;6.964;2022-12-16T08:19:47;78.57;;;52.87;;
15307;SDS011;7755;52.208;6.964;2022-12-16T08:24:03;74.03;;;46.83;;
15307;SDS011;7755;52.208;6.964;2022-12-16T08:28:24;74.67;;;49.70;;
15307;SDS011;7755;52.208;6.964;2022-12-16T08:32:46;81.53;;;55.70;;
15307;SDS011;7755;52.208;6.964;2022-12-16T08:37:19;82.60;;;52.07;;
15307;SDS011;7755;52.208;6.964;2022-12-16T08:41:39;97.40;;;54.07;;
15307;SDS011;7755;52.208;6.964;2022-12-16T08:46:00;68.57;;;44.07;;
15307;SDS011;7755;52.208;6.964;2022-12-16T08:50:21;80.80;;;49.87;;
15307;SDS011;7755;52.208;6.964;2022-12-16T08:54:41;78.30;;;49.47;;
15307;SDS011;7755;52.208;6.964;2022-12-16T08:59:02;89.47;;;51.13;;
15307;SDS011;7755;52.208;6.964;2022-12-16T09:03:23;79.93;;;50.03;;
15307;SDS011;7755;52.208;6.964;2022-12-16T09:07:45;98.27;;;56.30;;
15307;SDS011;7755;52.208;6.964;2022-12-16T09:12:05;78.20;;;48.10;;
15307;SDS011;7755;52.208;6.964;2022-12-16T09:16:25;107.80;;;58.70;;
15307;SDS011;7755;52.208;6.964;2022-12-16T09:20:46;109.00;;;59.07;;
15307;SDS011;7755;52.208;6.964;2022-12-16T09:25:08;101.43;;;59.73;;
15307;SDS011;7755;52.208;6.964;2022-12-16T09:29:28;97.10;;;55.07;;
15307;SDS011;7755;52.208;6.964;2022-12-16T09:33:48;78.90;;;47.93;;
15307;SDS011;7755;52.208;6.964;2022-12-16T09:38:09;58.87;;;41.13;;
15307;SDS011;7755;52.208;6.964;2022-12-16T09:42:32;67.23;;;42.97;;
15307;SDS011;7755;52.208;6.964;2022-12-16T09:47:03;67.53;;;43.07;;
15307;SDS011;7755;52.208;6.964;2022-12-16T09:51:29;64.93;;;42.93;;
15307;SDS011;7755;52.208;6.964;2022-12-16T09:55:51;83.23;;;50.47;;
15307;SDS011;7755;52.208;6.964;2022-12-16T10:00:15;72.93;;;47.93;;
15307;SDS011;7755;52.208;6.964;2022-12-16T10:04:40;100.90;;;55.53;;
15307;SDS011;7755;52.208;6.964;2022-12-16T10:09:12;93.93;;;53.47;;
15307;SDS011;7755;52.208;6.964;2022-12-16T10:13:41;100.47;;;54.97;;
15307;SDS011;7755;52.208;6.964;2022-12-16T10:18:12;95.27;;;55.07;;
15307;SDS011;7755;52.208;6.964;2022-12-16T10:22:46;82.97;;;50.20;;
15307;SDS011;7755;52.208;6.964;2022-12-16T10:27:13;102.97;;;57.00;;
15307;SDS011;7755;52.208;6.964;2022-12-16T10:31:34;99.40;;;54.77;;
15307;SDS011;7755;52.208;6.964;2022-12-16T10:35:57;89.40;;;56.57;;
15307;SDS011;7755;52.208;6.964;2022-12-16T10:40:20;109.43;;;61.23;;
15307;SDS011;7755;52.208;6.964;2022-12-16T10:44:45;101.87;;;58.10;;
15307;SDS011;7755;52.208;6.964;2022-12-16T10:49:09;116.00;;;63.67;;
15307;SDS011;7755;52.208;6.964;2022-12-16T10:53:38;133.27;;;68.20;;
15307;SDS011;7755;52.208;6.964;2022-12-16T10:58:01;133.80;;;70.50;;
15307;SDS011;7755;52.208;6.964;2022-12-16T11:02:35;94.83;;;60.53;;
15307;SDS011;7755;52.208;6.964;2022-12-16T11:06:56;121.53;;;64.27;;
15307;SDS011;7755;52.208;6.964;2022-12-16T11:11:22;101.33;;;60.33;;
15307;SDS011;7755;52.208;6.964;2022-12-16T11:15:44;99.60;;;56.63;;
15307;SDS011;7755;52.208;6.964;2022-12-16T11:20:06;119.00;;;61.53;;
15307;SDS011;7755;52.208;6.964;2022-12-16T11:24:30;102.70;;;59.97;;
15307;SDS011;7755;52.208;6.964;2022-12-16T11:29:05;102.70;;;57.23;;
15307;SDS011;7755;52.208;6.964;2022-12-16T11:33:31;117.70;;;64.03;;
15307;SDS011;7755;52.208;6.964;2022-12-16T11:37:53;110.00;;;58.70;;
15307;SDS011;7755;52.208;6.964;2022-12-16T11:42:16;101.87;;;59.57;;
15307;SDS011;7755;52.208;6.964;2022-12-16T11:46:41;103.17;;;55.73;;
15307;SDS011;7755;52.208;6.964;2022-12-16T11:51:02;96.33;;;61.90;;
15307;SDS011;7755;52.208;6.964;2022-12-16T11:55:24;86.07;;;54.33;;
15307;SDS011;7755;52.208;6.964;2022-12-16T12:00:14;110.90;;;58.93;;
15307;SDS011;7755;52.208;6.964;2022-12-16T12:04:37;106.47;;;61.47;;
15307;SDS011;7755;52.208;6.964;2022-12-16T12:08:56;103.77;;;60.43;;
15307;SDS011;7755;52.208;6.964;2022-12-16T12:13:21;107.77;;;58.10;;
15307;SDS011;7755;52.208;6.964;2022-12-16T12:17:58;107.30;;;57.93;;
15307;SDS011;7755;52.208;6.964;2022-12-16T12:22:27;101.80;;;58.87;;
15307;SDS011;7755;52.208;6.964;2022-12-16T12:26:56;91.23;;;55.33;;
15307;SDS011;7755;52.208;6.964;2022-12-16T12:31:27;91.00;;;53.63;;
15307;SDS011;7755;52.208;6.964;2022-12-16T12:35:58;82.70;;;52.10;;
15307;SDS011;7755;52.208;6.964;2022-12-16T12:40:29;84.57;;;53.17;;
15307;SDS011;7755;52.208;6.964;2022-12-16T12:45:00;87.10;;;54.50;;
15307;SDS011;7755;52.208;6.964;2022-12-16T12:49:37;80.93;;;52.83;;
15307;SDS011;7755;52.208;6.964;2022-12-16T12:54:03;71.90;;;50.47;;
15307;SDS011;7755;52.208;6.964;2022-12-16T12:58:35;77.17;;;51.23;;
15307;SDS011;7755;52.208;6.964;2022-12-16T13:02:59;72.03;;;49.97;;
15307;SDS011;7755;52.208;6.964;2022-12-16T13:07:36;78.40;;;52.80;;
15307;SDS011;7755;52.208;6.964;2022-12-16T13:21:42;75.70;;;51.40;;
15307;SDS011;7755;52.208;6.964;2022-12-16T13:26:05;77.53;;;52.20;;
15307;SDS011;7755;52.208;6.964;2022-12-16T13:30:25;73.13;;;49.90;;
15307;SDS011;7755;52.208;6.964;2022-12-16T13:34:58;78.40;;;52.10;;
15307;SDS011;7755;52.208;6.964;2022-12-16T13:39:22;79.93;;;53.27;;
15307;SDS011;7755;52.208;6.964;2022-12-16T13:43:45;75.63;;;51.10;;
15307;SDS011;7755;52.208;6.964;2022-12-16T13:53:02;69.50;;;49.07;;
15307;SDS011;7755;52.208;6.964;2022-12-16T13:57:25;87.47;;;56.83;;
15307;SDS011;7755;52.208;6.964;2022-12-16T14:01:51;85.63;;;55.40;;
15307;SDS011;7755;52.208;6.964;2022-12-16T14:06:16;76.63;;;50.57;;
15307;SDS011;7755;52.208;6.964;2022-12-16T14:10:43;76.10;;;52.57;;
15307;SDS011;7755;52.208;6.964;2022-12-16T14:15:04;76.63;;;49.93;;
15307;SDS011;7755;52.208;6.964;2022-12-16T14:19:31;72.17;;;48.90;;
15307;SDS011;7755;52.208;6.964;2022-12-16T14:24:01;81.80;;;50.87;;
15307;SDS011;7755;52.208;6.964;2022-12-16T14:28:30;75.07;;;49.73;;
15307;SDS011;7755;52.208;6.964;2022-12-16T14:32:54;83.67;;;53.17;;
15307;SDS011;7755;52.208;6.964;2022-12-16T14:37:15;67.93;;;46.83;;
15307;SDS011;7755;52.208;6.964;2022-12-16T14:41:37;73.37;;;48.77;;
15307;SDS011;7755;52.208;6.964;2022-12-16T14:45:58;84.23;;;55.37;;
15307;SDS011;7755;52.208;6.964;2022-12-16T14:50:20;69.00;;;47.13;;
15307;SDS011;7755;52.208;6.964;2022-12-16T14:54:44;85.43;;;55.07;;
15307;SDS011;7755;52.208;6.964;2022-12-16T14:59:08;80.87;;;50.33;;
15307;SDS011;7755;52.208;6.964;2022-12-16T15:03:33;84.33;;;55.17;;
15307;SDS011;7755;52.208;6.964;2022-12-16T15:07:58;77.80;;;50.63;;
15307;SDS011;7755;52.208;6.964;2022-12-16T15:12:20;76.60;;;51.10;;
15307;SDS011;7755;52.208;6.964;2022-12-16T15:16:42;80.67;;;52.53;;
15307;SDS011;7755;52.208;6.964;2022-12-16T15:21:06;73.73;;;49.07;;
15307;SDS011;7755;52.208;6.964;2022-12-16T15:25:27;71.57;;;49.83;;
15307;SDS011;7755;52.208;6.964;2022-12-16T15:29:47;75.90;;;52.10;;
15307;SDS011;7755;52.208;6.964;2022-12-16T15:34:21;80.00;;;55.17;;
15307;SDS011;7755;52.208;6.964;2022-12-16T15:38:46;69.80;;;49.03;;
15307;SDS011;7755;52.208;6.964;2022-12-16T15:43:17;75.30;;;49.93;;
15307;SDS011;7755;52.208;6.964;2022-12-16T15:47:40;67.03;;;47.43;;
15307;SDS011;7755;52.208;6.964;2022-12-16T15:52:00;70.17;;;48.03;;
15307;SDS011;7755;52.208;6.964;2022-12-16T15:56:23;73.50;;;49.73;;
15307;SDS011;7755;52.208;6.964;2022-12-16T16:00:54;68.23;;;46.00;;
15307;SDS011;7755;52.208;6.964;2022-12-16T16:05:17;72.97;;;50.63;;
15307;SDS011;7755;52.208;6.964;2022-12-16T16:09:39;68.53;;;49.80;;
15307;SDS011;7755;52.208;6.964;2022-12-16T16:14:00;77.77;;;53.73;;
15307;SDS011;7755;52.208;6.964;2022-12-16T16:18:21;66.47;;;47.17;;
15307;SDS011;7755;52.208;6.964;2022-12-16T16:22:41;64.67;;;47.27;;
15307;SDS011;7755;52.208;6.964;2022-12-16T16:27:01;60.07;;;45.77;;
15307;SDS011;7755;52.208;6.964;2022-12-16T16:31:26;73.43;;;49.60;;
15307;SDS011;7755;52.208;6.964;2022-12-16T16:35:47;73.13;;;52.30;;
15307;SDS011;7755;52.208;6.964;2022-12-16T16:40:11;77.57;;;51.83;;
15307;SDS011;7755;52.208;6.964;2022-12-16T16:44:37;74.87;;;56.00;;
15307;SDS011;7755;52.208;6.964;2022-12-16T16:48:59;78.97;;;55.83;;
15307;SDS011;7755;52.208;6.964;2022-12-16T16:53:19;81.83;;;58.43;;
15307;SDS011;7755;52.208;6.964;2022-12-16T16:57:39;76.07;;;54.77;;
15307;SDS011;7755;52.208;6.964;2022-12-16T17:02:00;95.93;;;66.63;;
15307;SDS011;7755;52.208;6.964;2022-12-16T17:06:22;80.03;;;56.73;;
15307;SDS011;7755;52.208;6.964;2022-12-16T17:10:42;82.80;;;57.17;;
15307;SDS011;7755;52.208;6.964;2022-12-16T17:15:15;76.30;;;53.60;;
15307;SDS011;7755;52.208;6.964;2022-12-16T17:19:37;96.13;;;62.03;;
15307;SDS011;7755;52.208;6.964;2022-12-16T17:23:59;87.73;;;55.67;;
15307;SDS011;7755;52.208;6.964;2022-12-16T17:28:19;88.47;;;53.73;;
15307;SDS011;7755;52.208;6.964;2022-12-16T17:32:40;83.87;;;52.50;;
15307;SDS011;7755;52.208;6.964;2022-12-16T17:37:00;81.03;;;51.10;;
15307;SDS011;7755;52.208;6.964;2022-12-16T17:41:22;101.37;;;59.37;;
15307;SDS011;7755;52.208;6.964;2022-12-16T17:45:43;81.63;;;52.63;;
15307;SDS011;7755;52.208;6.964;2022-12-16T17:50:14;91.77;;;56.70;;
15307;SDS011;7755;52.208;6.964;2022-12-16T17:54:35;97.37;;;60.63;;
15307;SDS011;7755;52.208;6.964;2022-12-16T17:58:58;88.37;;;51.93;;
15307;SDS011;7755;52.208;6.964;2022-12-16T18:03:18;90.87;;;53.83;;
15307;SDS011;7755;52.208;6.964;2022-12-16T18:07:40;86.63;;;53.87;;
15307;SDS011;7755;52.208;6.964;2022-12-16T18:12:00;90.20;;;50.83;;
15307;SDS011;7755;52.208;6.964;2022-12-16T18:16:21;104.00;;;54.97;;
15307;SDS011;7755;52.208;6.964;2022-12-16T18:20:42;80.97;;;48.03;;
15307;SDS011;7755;52.208;6.964;2022-12-16T18:25:02;99.20;;;52.93;;
15307;SDS011;7755;52.208;6.964;2022-12-16T18:29:23;91.47;;;51.37;;
15307;SDS011;7755;52.208;6.964;2022-12-16T18:33:45;111.60;;;54.57;;
15307;SDS011;7755;52.208;6.964;2022-12-16T18:38:05;99.53;;;57.57;;
15307;SDS011;7755;52.208;6.964;2022-12-16T18:42:22;101.63;;;56.63;;
15307;SDS011;7755;52.208;6.964;2022-12-16T18:46:42;112.03;;;67.40;;
15307;SDS011;7755;52.208;6.964;2022-12-16T18:51:06;105.57;;;59.97;;
15307;SDS011;7755;52.208;6.964;2022-12-16T18:55:26;126.27;;;69.73;;
15307;SDS011;7755;52.208;6.964;2022-12-16T18:59:47;117.27;;;65.47;;
15307;SDS011;7755;52.208;6.964;2022-12-16T19:04:07;118.83;;;63.60;;
15307;SDS011;7755;52.208;6.964;2022-12-16T19:08:29;128.97;;;71.93;;
15307;SDS011;7755;52.208;6.964;2022-12-16T19:12:53;162.67;;;76.27;;
15307;SDS011;7755;52.208;6.964;2022-12-16T19:17:15;110.37;;;61.83;;
15307;SDS011;7755;52.208;6.964;2022-12-16T19:21:36;156.10;;;75.87;;
15307;SDS011;7755;52.208;6.964;2022-12-16T19:26:17;127.20;;;69.30;;
15307;SDS011;7755;52.208;6.964;2022-12-16T19:30:38;146.77;;;79.13;;
15307;SDS011;7755;52.208;6.964;2022-12-16T19:34:58;133.03;;;71.03;;
15307;SDS011;7755;52.208;6.964;2022-12-16T19:39:34;144.63;;;78.83;;
15307;SDS011;7755;52.208;6.964;2022-12-16T19:44:02;134.27;;;71.23;;
15307;SDS011;7755;52.208;6.964;2022-12-16T19:48:23;138.33;;;70.50;;
15307;SDS011;7755;52.208;6.964;2022-12-16T19:52:44;132.40;;;73.47;;
15307;SDS011;7755;52.208;6.964;2022-12-16T19:57:05;139.27;;;69.73;;
15307;SDS011;7755;52.208;6.964;2022-12-16T20:01:28;147.90;;;75.80;;
15307;SDS011;7755;52.208;6.964;2022-12-16T20:05:57;126.67;;;69.20;;
15307;SDS011;7755;52.208;6.964;2022-12-16T20:10:18;125.57;;;63.97;;
15307;SDS011;7755;52.208;6.964;2022-12-16T20:14:39;128.53;;;67.97;;
15307;SDS011;7755;52.208;6.964;2022-12-16T20:19:02;157.23;;;80.70;;
15307;SDS011;7755;52.208;6.964;2022-12-16T20:23:22;140.40;;;74.77;;
15307;SDS011;7755;52.208;6.964;2022-12-16T20:27:42;147.00;;;76.43;;
15307;SDS011;7755;52.208;6.964;2022-12-16T20:32:03;164.33;;;81.90;;
15307;SDS011;7755;52.208;6.964;2022-12-16T20:36:25;158.37;;;78.90;;
15307;SDS011;7755;52.208;6.964;2022-12-16T20:40:53;157.13;;;79.53;;
15307;SDS011;7755;52.208;6.964;2022-12-16T20:45:14;139.03;;;70.87;;
15307;SDS011;7755;52.208;6.964;2022-12-16T20:49:35;171.40;;;80.40;;
15307;SDS011;7755;52.208;6.964;2022-12-16T20:53:57;151.07;;;76.97;;
15307;SDS011;7755;52.208;6.964;2022-12-16T20:58:18;123.60;;;64.90;;
15307;SDS011;7755;52.208;6.964;2022-12-16T21:02:39;143.83;;;69.90;;
15307;SDS011;7755;52.208;6.964;2022-12-16T21:07:01;126.40;;;64.33;;
15307;SDS011;7755;52.208;6.964;2022-12-16T21:11:22;128.33;;;66.13;;
15307;SDS011;7755;52.208;6.964;2022-12-16T21:15:43;146.30;;;68.07;;
15307;SDS011;7755;52.208;6.964;2022-12-16T21:20:04;130.47;;;67.63;;
15307;SDS011;7755;52.208;6.964;2022-12-16T21:24:22;127.33;;;67.20;;
15307;SDS011;7755;52.208;6.964;2022-12-16T21:28:45;173.60;;;73.67;;
15307;SDS011;7755;52.208;6.964;2022-12-16T21:33:12;210.50;;;78.30;;
15307;SDS011;7755;52.208;6.964;2022-12-16T21:37:35;158.70;;;66.10;;
15307;SDS011;7755;52.208;6.964;2022-12-16T21:41:56;168.27;;;75.37;;
15307;SDS011;7755;52.208;6.964;2022-12-16T21:46:18;133.27;;;63.67;;
15307;SDS011;7755;52.208;6.964;2022-12-16T21:50:38;139.67;;;64.77;;
15307;SDS011;7755;52.208;6.964;2022-12-16T21:54:59;173.10;;;77.10;;
15307;SDS011;7755;52.208;6.964;2022-12-16T21:59:20;139.33;;;62.57;;
15307;SDS011;7755;52.208;6.964;2022-12-16T22:03:41;181.40;;;75.47;;
15307;SDS011;7755;52.208;6.964;2022-12-16T22:08:14;151.50;;;71.80;;
15307;SDS011;7755;52.208;6.964;2022-12-16T22:12:36;167.83;;;72.23;;
15307;SDS011;7755;52.208;6.964;2022-12-16T22:16:56;270.23;;;98.77;;
15307;SDS011;7755;52.208;6.964;2022-12-16T22:21:18;137.10;;;68.37;;
15307;SDS011;7755;52.208;6.964;2022-12-16T22:25:38;137.00;;;66.20;;
15307;SDS011;7755;52.208;6.964;2022-12-16T22:29:59;181.07;;;76.37;;
15307;SDS011;7755;52.208;6.964;2022-12-16T22:34:19;164.17;;;74.70;;
15307;SDS011;7755;52.208;6.964;2022-12-16T22:38:41;208.67;;;80.87;;
15307;SDS011;7755;52.208;6.964;2022-12-16T22:43:01;146.30;;;68.37;;
15307;SDS011;7755;52.208;6.964;2022-12-16T22:47:22;140.37;;;67.20;;
15307;SDS011;7755;52.208;6.964;2022-12-16T22:51:42;152.53;;;69.30;;
15307;SDS011;7755;52.208;6.964;2022-12-16T22:56:04;198.33;;;78.23;;
15307;SDS011;7755;52.208;6.964;2022-12-16T23:00:37;135.67;;;64.17;;
15307;SDS011;7755;52.208;6.964;2022-12-16T23:04:57;145.87;;;64.07;;
15307;SDS011;7755;52.208;6.964;2022-12-16T23:09:24;123.00;;;62.23;;
15307;SDS011;7755;52.208;6.964;2022-12-16T23:13:45;181.77;;;74.43;;
15307;SDS011;7755;52.208;6.964;2022-12-16T23:18:06;158.73;;;70.63;;
15307;SDS011;7755;52.208;6.964;2022-12-16T23:22:26;167.63;;;79.77;;
15307;SDS011;7755;52.208;6.964;2022-12-16T23:26:46;169.37;;;72.87;;
15307;SDS011;7755;52.208;6.964;2022-12-16T23:31:08;156.10;;;72.53;;
15307;SDS011;7755;52.208;6.964;2022-12-16T23:35:29;167.27;;;73.87;;
15307;SDS011;7755;52.208;6.964;2022-12-16T23:39:49;189.70;;;78.67;;
15307;SDS011;7755;52.208;6.964;2022-12-16T23:44:09;152.17;;;71.97;;
15307;SDS011;7755;52.208;6.964;2022-12-16T23:48:31;156.70;;;69.47;;
15307;SDS011;7755;52.208;6.964;2022-12-16T23:53:02;175.63;;;72.40;;
15307;SDS011;7755;52.208;6.964;2022-12-16T23:57:23;140.63;;;70.00;;
